Time;durP1;ratioP1;P1;durP2;ratioP2;P2;SDS_P1;SDS_P2;PMS_P1;PMS_P2;Temp;Humidity;BMP_temperature;BMP_pressure;BME280_temperature;BME280_humidity;BME280_pressure;Samples;Min_cycle;Max_cycle;Signal;HPM_P1;HPM_P2
2023/05/02 00:01:54;;;;;;;88.13;42.70;;;12.20;99.90;;;;;;5053253;28;20173;-67
2023/05/02 00:04:20;;;;;;;82.67;42.60;;;12.30;99.90;;;;;;5053623;28;20225;-66
2023/05/02 00:06:45;;;;;;;67.63;35.60;;;12.40;99.90;;;;;;5053573;28;20526;-67
2023/05/02 00:09:12;;;;;;;73.03;35.73;;;12.40;99.90;;;;;;5053487;28;20640;-67
2023/05/02 00:11:37;;;;;;;61.60;33.37;;;12.50;99.90;;;;;;5053673;28;20240;-68
2023/05/02 00:14:03;;;;;;;53.07;28.23;;;12.50;99.90;;;;;;5053479;28;20628;-68
2023/05/02 00:16:29;;;;;;;56.43;30.17;;;12.50;99.90;;;;;;5053032;28;20197;-68
2023/05/02 00:18:54;;;;;;;53.77;28.77;;;12.50;99.90;;;;;;5053021;28;20244;-67
2023/05/02 00:21:20;;;;;;;51.20;28.50;;;12.50;99.90;;;;;;5053383;28;20688;-67
2023/05/02 00:23:46;;;;;;;53.00;28.53;;;12.60;99.90;;;;;;5053307;28;20185;-67
2023/05/02 00:26:12;;;;;;;50.83;28.30;;;12.50;99.90;;;;;;5053228;28;20180;-67
2023/05/02 00:28:37;;;;;;;52.47;29.73;;;12.60;99.90;;;;;;5053431;28;20192;-67
2023/05/02 00:31:06;;;;;;;52.73;28.70;;;12.60;99.90;;;;;;5052750;28;20197;-68
2023/05/02 00:33:31;;;;;;;52.97;29.70;;;12.60;99.90;;;;;;5053237;28;20211;-68
2023/05/02 00:35:57;;;;;;;54.20;29.60;;;12.70;99.90;;;;;;5053060;28;20193;-67
2023/05/02 00:38:22;;;;;;;55.17;30.30;;;12.60;99.90;;;;;;5052900;28;20161;-67
2023/05/02 00:40:52;;;;;;;54.33;29.37;;;12.60;99.90;;;;;;5052518;28;20162;-67
2023/05/02 00:43:19;;;;;;;49.07;28.60;;;12.60;99.90;;;;;;5053059;28;20173;-67
2023/05/02 00:45:47;;;;;;;48.63;28.77;;;12.50;99.90;;;;;;5052701;28;20157;-67
2023/05/02 00:48:13;;;;;;;51.60;29.57;;;12.60;99.90;;;;;;5053103;28;20180;-67
2023/05/02 00:50:41;;;;;;;46.60;28.63;;;12.70;99.90;;;;;;5053038;28;20169;-67
2023/05/02 00:53:08;;;;;;;53.17;29.73;;;12.70;99.90;;;;;;5052950;28;20656;-67
2023/05/02 00:55:34;;;;;;;53.17;29.97;;;12.60;99.90;;;;;;5052856;28;20169;-67
2023/05/02 00:58:05;;;;;;;55.57;31.83;;;12.70;99.90;;;;;;5035167;28;20212;-67
2023/05/02 01:00:51;;;;;;;51.27;30.80;;;12.70;99.90;;;;;;5052599;28;20176;-67
2023/05/02 01:03:46;;;;;;;51.67;30.07;;;12.80;99.90;;;;;;5053084;28;20230;-67
2023/05/02 01:06:23;;;;;;;52.00;29.97;;;12.80;99.90;;;;;;5025773;28;20541;-67
2023/05/02 01:09:13;;;;;;;57.03;31.27;;;12.80;99.90;;;;;;5052744;28;20176;-67
2023/05/02 01:11:48;;;;;;;59.33;32.50;;;12.70;99.90;;;;;;5052739;28;20162;-67
2023/05/02 01:14:14;;;;;;;55.70;31.83;;;12.60;99.90;;;;;;5052937;28;20161;-67
2023/05/02 01:16:44;;;;;;;57.23;32.03;;;12.50;99.90;;;;;;5052273;28;20274;-67
2023/05/02 01:19:23;;;;;;;55.27;31.70;;;12.60;99.90;;;;;;5052354;28;20212;-67
2023/05/02 01:21:50;;;;;;;54.30;32.00;;;12.60;99.90;;;;;;5052716;28;20703;-67
2023/05/02 01:24:28;;;;;;;58.13;32.67;;;12.40;99.90;;;;;;5052659;28;20211;-67
2023/05/02 01:27:18;;;;;;;57.03;31.77;;;12.50;99.90;;;;;;5052622;28;20181;-67
2023/05/02 01:29:46;;;;;;;60.10;33.63;;;12.50;99.90;;;;;;5052327;28;20173;-67
2023/05/02 01:32:13;;;;;;;58.50;32.13;;;12.30;99.90;;;;;;5052730;28;20169;-67
2023/05/02 01:34:42;;;;;;;59.77;33.50;;;12.30;99.90;;;;;;5052705;28;20173;-67
2023/05/02 01:37:09;;;;;;;53.83;32.30;;;12.30;99.90;;;;;;5034756;28;20209;-67
2023/05/02 01:39:37;;;;;;;58.87;34.77;;;12.20;99.90;;;;;;5052540;28;20173;-67
2023/05/02 01:42:04;;;;;;;58.10;33.63;;;12.20;99.90;;;;;;5052420;28;20235;-67
2023/05/02 01:44:32;;;;;;;59.37;34.20;;;12.30;99.90;;;;;;5052303;28;20174;-67
2023/05/02 01:47:01;;;;;;;56.13;32.70;;;12.30;99.90;;;;;;5052501;28;20173;-67
2023/05/02 01:49:30;;;;;;;56.97;33.67;;;12.30;99.90;;;;;;5052527;28;20180;-67
2023/05/02 01:52:02;;;;;;;54.90;32.50;;;12.30;99.90;;;;;;5053956;28;20308;-67
2023/05/02 01:54:28;;;;;;;55.33;32.17;;;12.20;99.90;;;;;;5054659;28;20521;-66
2023/05/02 01:56:55;;;;;;;55.27;32.73;;;12.30;99.90;;;;;;5055886;28;20213;-68
2023/05/02 01:59:22;;;;;;;56.47;32.53;;;12.30;99.90;;;;;;5055561;28;20647;-67
2023/05/02 02:01:50;;;;;;;56.43;32.60;;;12.20;99.90;;;;;;5055965;28;20227;-67
2023/05/02 02:04:17;;;;;;;54.53;32.93;;;12.30;99.90;;;;;;5056206;28;20169;-67
2023/05/02 02:06:47;;;;;;;58.83;31.67;;;12.20;99.90;;;;;;5055916;28;20623;-68
2023/05/02 02:09:13;;;;;;;53.93;31.53;;;12.30;99.90;;;;;;5055597;28;20577;-67
2023/05/02 02:12:10;;;;;;;51.87;31.17;;;12.20;99.90;;;;;;5055817;28;20184;-67
2023/05/02 02:14:38;;;;;;;55.83;32.77;;;12.20;99.90;;;;;;5055336;28;20180;-67
2023/05/02 02:17:21;;;;;;;59.70;32.17;;;12.20;99.90;;;;;;5055111;28;20300;-67
2023/05/02 02:19:48;;;;;;;56.93;31.83;;;12.20;99.90;;;;;;5055463;28;20177;-67
2023/05/02 02:22:17;;;;;;;58.07;32.77;;;12.10;99.90;;;;;;5055454;28;20235;-68
2023/05/02 02:24:45;;;;;;;59.40;33.63;;;12.20;99.90;;;;;;5055424;28;20189;-67
2023/05/02 02:27:10;;;;;;;56.73;32.77;;;12.10;99.90;;;;;;5055118;28;20173;-67
2023/05/02 02:29:36;;;;;;;56.07;31.03;;;12.10;99.90;;;;;;5055285;28;20703;-67
2023/05/02 02:32:02;;;;;;;56.03;31.77;;;12.10;99.90;;;;;;5055062;28;20264;-68
2023/05/02 02:34:28;;;;;;;57.77;33.13;;;12.10;99.90;;;;;;5055376;28;20264;-67
2023/05/02 02:37:07;;;;;;;55.73;31.67;;;12.20;99.90;;;;;;5055113;28;20570;-67
2023/05/02 02:39:53;;;;;;;54.70;30.30;;;12.20;99.90;;;;;;5055258;28;20161;-68
2023/05/02 02:42:41;;;;;;;47.80;29.30;;;12.20;99.90;;;;;;5054567;28;20256;-67
2023/05/02 02:45:37;;;;;;;49.13;29.80;;;12.20;99.90;;;;;;5055271;28;20173;-67
2023/05/02 02:48:08;;;;;;;50.77;28.47;;;12.20;99.90;;;;;;5054963;28;20162;-66
2023/05/02 02:50:34;;;;;;;51.27;30.63;;;12.00;99.90;;;;;;5054830;28;20169;-67
2023/05/02 02:53:12;;;;;;;50.70;29.70;;;12.00;99.90;;;;;;5054745;28;20252;-67
2023/05/02 02:55:48;;;;;;;49.13;28.87;;;12.00;99.90;;;;;;5054792;28;20194;-67
2023/05/02 02:58:59;;;;;;;48.87;26.67;;;12.00;99.90;;;;;;5054507;28;20189;-68
2023/05/02 03:01:27;;;;;;;45.70;27.03;;;12.00;99.90;;;;;;5054424;28;20176;-67
2023/05/02 03:03:55;;;;;;;45.63;27.27;;;11.90;99.90;;;;;;5054404;28;20218;-68
2023/05/02 03:06:21;;;;;;;46.53;27.80;;;12.00;99.90;;;;;;5054648;28;20169;-66
2023/05/02 03:08:46;;;;;;;49.20;27.87;;;12.00;99.90;;;;;;5054600;28;20260;-66
2023/05/02 03:11:12;;;;;;;49.83;29.20;;;12.10;99.90;;;;;;5054070;28;20197;-67
2023/05/02 03:13:37;;;;;;;51.37;27.53;;;12.10;99.90;;;;;;5054363;28;20616;-67
2023/05/02 03:16:36;;;;;;;49.80;28.30;;;12.10;99.90;;;;;;5054288;28;20204;-67
2023/05/02 03:19:03;;;;;;;47.50;28.10;;;12.00;99.90;;;;;;5053706;28;20227;-67
2023/05/02 03:21:32;;;;;;;44.20;26.87;;;12.10;99.90;;;;;;5054366;28;20165;-67
2023/05/02 03:23:59;;;;;;;42.33;26.47;;;12.00;99.90;;;;;;5052941;28;20185;-67
2023/05/02 03:26:25;;;;;;;45.47;26.70;;;12.10;99.90;;;;;;5053563;28;20292;-67
2023/05/02 03:28:51;;;;;;;46.87;27.77;;;12.00;99.90;;;;;;5053851;28;20173;-67
2023/05/02 03:31:17;;;;;;;47.60;27.13;;;11.90;99.90;;;;;;5053889;28;20173;-67
2023/05/02 03:33:42;;;;;;;46.37;27.67;;;11.90;99.90;;;;;;5053725;28;20177;-67
2023/05/02 03:36:09;;;;;;;49.37;27.43;;;11.80;99.90;;;;;;5054110;28;20208;-67
2023/05/02 03:38:34;;;;;;;48.67;27.87;;;11.60;99.90;;;;;;5053641;28;20169;-67
2023/05/02 03:41:00;;;;;;;48.20;28.60;;;11.50;99.90;;;;;;5053150;28;20199;-67
2023/05/02 03:43:25;;;;;;;53.97;29.03;;;11.30;99.90;;;;;;5053961;28;20636;-67
2023/05/02 03:45:51;;;;;;;48.77;28.13;;;11.30;99.90;;;;;;5053412;28;20248;-67
2023/05/02 03:48:17;;;;;;;54.33;28.60;;;11.20;99.90;;;;;;5053781;28;20523;-67
2023/05/02 03:50:43;;;;;;;50.33;27.93;;;11.20;99.90;;;;;;5053293;28;20196;-67
2023/05/02 03:53:09;;;;;;;58.07;29.97;;;11.20;99.90;;;;;;5053178;28;20206;-67
2023/05/02 03:55:42;;;;;;;53.77;29.67;;;11.10;99.90;;;;;;5052948;28;20176;-68
2023/05/02 03:58:09;;;;;;;59.63;31.40;;;11.10;99.90;;;;;;5052961;28;20217;-67
2023/05/02 04:00:35;;;;;;;57.20;30.73;;;11.00;99.90;;;;;;5052264;28;20169;-67
2023/05/02 04:03:01;;;;;;;54.97;29.53;;;11.00;99.90;;;;;;5052832;28;20709;-67
2023/05/02 04:05:26;;;;;;;59.83;31.00;;;11.10;99.90;;;;;;5053207;28;20169;-68
2023/05/02 04:07:52;;;;;;;53.73;30.13;;;11.10;99.90;;;;;;5053349;28;20640;-67
2023/05/02 04:10:17;;;;;;;60.27;31.90;;;11.10;99.90;;;;;;5052586;28;20248;-67
2023/05/02 04:12:43;;;;;;;63.10;33.67;;;11.20;99.90;;;;;;5052909;28;20629;-67
2023/05/02 04:15:12;;;;;;;60.67;33.13;;;11.20;99.90;;;;;;5052473;28;20173;-68
2023/05/02 04:17:38;;;;;;;63.63;32.53;;;11.20;99.90;;;;;;5052742;28;20721;-67
2023/05/02 04:20:07;;;;;;;60.60;32.77;;;11.20;99.90;;;;;;5052722;28;20177;-67
2023/05/02 04:22:33;;;;;;;62.07;33.20;;;11.20;99.90;;;;;;5052640;28;20173;-67
2023/05/02 04:24:59;;;;;;;58.93;32.80;;;11.20;99.90;;;;;;5052458;28;20192;-67
2023/05/02 04:27:25;;;;;;;63.00;33.30;;;11.20;99.90;;;;;;5052938;28;20169;-67
2023/05/02 04:29:52;;;;;;;62.33;32.83;;;11.30;99.90;;;;;;5052912;28;20195;-67
2023/05/02 04:32:17;;;;;;;62.87;33.80;;;11.40;99.90;;;;;;5052440;28;20195;-67
2023/05/02 04:34:43;;;;;;;59.17;32.17;;;11.30;99.90;;;;;;5052841;28;20257;-66
2023/05/02 04:37:09;;;;;;;64.10;33.53;;;11.40;99.90;;;;;;5052441;28;20231;-66
2023/05/02 04:39:34;;;;;;;60.10;31.90;;;11.40;99.90;;;;;;5052571;28;20543;-68
2023/05/02 04:42:00;;;;;;;62.67;33.07;;;11.40;99.90;;;;;;5052562;28;20632;-67
2023/05/02 04:44:26;;;;;;;58.53;32.97;;;11.50;99.90;;;;;;5052365;28;20181;-67
2023/05/02 04:46:52;;;;;;;59.53;33.90;;;11.40;99.90;;;;;;5052450;28;20581;-67
2023/05/02 04:49:17;;;;;;;59.20;33.37;;;11.40;99.90;;;;;;5052309;28;20252;-67
2023/05/02 04:51:44;;;;;;;62.97;34.00;;;11.40;99.90;;;;;;5052153;28;20530;-67
2023/05/02 04:54:10;;;;;;;62.93;34.17;;;11.50;99.90;;;;;;5051714;28;20251;-68
2023/05/02 04:56:35;;;;;;;58.73;31.63;;;11.60;99.90;;;;;;5052590;28;20201;-67
2023/05/02 04:59:01;;;;;;;64.67;32.87;;;11.70;99.90;;;;;;5052333;28;20173;-67
2023/05/02 05:01:27;;;;;;;60.07;33.33;;;11.70;99.90;;;;;;5052467;28;20669;-67
2023/05/02 05:03:53;;;;;;;57.97;32.43;;;11.80;99.90;;;;;;5052182;28;20166;-67
2023/05/02 05:06:19;;;;;;;61.20;32.47;;;11.80;99.90;;;;;;5051109;28;20267;-67
2023/05/02 05:08:45;;;;;;;57.97;32.53;;;11.90;99.90;;;;;;5052431;28;20613;-67
2023/05/02 05:11:11;;;;;;;54.57;32.13;;;11.80;99.90;;;;;;5052308;28;20185;-67
2023/05/02 05:13:37;;;;;;;51.93;31.33;;;11.90;99.90;;;;;;5051965;28;20254;-67
2023/05/02 05:16:03;;;;;;;51.73;30.73;;;11.80;99.90;;;;;;5052313;28;20173;-67
2023/05/02 05:18:29;;;;;;;56.63;32.13;;;11.80;99.90;;;;;;5051949;28;20228;-68
2023/05/02 05:20:54;;;;;;;53.07;31.37;;;11.80;99.90;;;;;;5051508;28;20513;-67
2023/05/02 05:23:20;;;;;;;54.40;30.07;;;11.80;99.90;;;;;;5051386;28;20657;-66
2023/05/02 05:25:46;;;;;;;52.53;30.40;;;11.90;99.90;;;;;;5052842;28;20525;-67
2023/05/02 05:28:11;;;;;;;50.10;28.80;;;12.00;99.90;;;;;;5056007;28;20165;-66
2023/05/02 05:30:37;;;;;;;46.40;28.70;;;12.00;99.90;;;;;;5054136;28;20177;-67
2023/05/02 05:33:03;;;;;;;47.97;27.90;;;12.10;99.90;;;;;;5055700;28;20184;-67
2023/05/02 05:35:29;;;;;;;50.07;27.43;;;12.10;99.90;;;;;;5054909;28;20641;-67
2023/05/02 05:37:54;;;;;;;50.23;26.77;;;12.10;99.90;;;;;;5055271;28;20296;-67
2023/05/02 05:40:20;;;;;;;51.67;27.63;;;12.10;99.90;;;;;;5054906;28;20193;-67
2023/05/02 05:42:46;;;;;;;42.00;25.40;;;12.10;99.90;;;;;;5055127;28;20174;-67
2023/05/02 05:45:12;;;;;;;42.73;25.90;;;12.00;99.90;;;;;;5055293;28;20158;-67
2023/05/02 05:47:38;;;;;;;42.50;25.93;;;12.00;99.90;;;;;;5055166;28;20256;-69
2023/05/02 05:50:04;;;;;;;38.17;25.23;;;12.00;99.90;;;;;;5053415;28;20307;-68
2023/05/02 05:52:30;;;;;;;42.33;25.43;;;12.00;99.90;;;;;;5055153;28;20180;-67
2023/05/02 05:54:55;;;;;;;42.60;24.60;;;12.10;99.90;;;;;;5036572;28;20188;-67
2023/05/02 05:57:21;;;;;;;37.33;23.87;;;12.10;99.90;;;;;;5054493;28;20266;-67
2023/05/02 05:59:47;;;;;;;38.07;24.57;;;12.10;99.90;;;;;;5036930;28;20586;-67
2023/05/02 06:02:13;;;;;;;40.27;25.30;;;12.20;99.90;;;;;;5054760;28;20176;-67
2023/05/02 06:04:39;;;;;;;38.80;25.30;;;12.20;99.90;;;;;;5054637;28;20181;-67
2023/05/02 06:07:04;;;;;;;35.67;24.50;;;12.30;99.90;;;;;;5054642;28;20222;-67
2023/05/02 06:09:30;;;;;;;39.10;24.30;;;12.40;99.90;;;;;;5054460;28;20169;-69
2023/05/02 06:11:56;;;;;;;38.50;23.83;;;12.40;99.90;;;;;;5053954;28;20228;-68
2023/05/02 06:14:21;;;;;;;36.13;23.03;;;12.40;99.90;;;;;;5054323;28;20165;-68
2023/05/02 06:16:47;;;;;;;35.93;23.27;;;12.40;99.90;;;;;;5053237;28;20668;-68
2023/05/02 06:19:13;;;;;;;35.17;24.00;;;12.50;99.90;;;;;;5053221;28;20213;-67
2023/05/02 06:21:39;;;;;;;36.87;22.60;;;12.50;99.90;;;;;;5053963;28;20361;-67
2023/05/02 06:24:05;;;;;;;35.43;23.13;;;12.40;99.90;;;;;;5054102;28;20200;-67
2023/05/02 06:26:31;;;;;;;38.43;23.73;;;12.30;99.90;;;;;;5054080;28;20227;-67
2023/05/02 06:28:56;;;;;;;34.60;22.90;;;12.40;99.90;;;;;;5054443;28;20197;-68
2023/05/02 06:31:22;;;;;;;36.83;24.13;;;12.40;99.90;;;;;;5054256;28;20169;-67
2023/05/02 06:33:48;;;;;;;36.10;23.63;;;12.20;99.90;;;;;;5053574;28;20707;-67
2023/05/02 06:36:13;;;;;;;43.63;24.33;;;12.30;99.90;;;;;;5053771;28;20295;-68
2023/05/02 06:38:39;;;;;;;37.17;24.27;;;12.50;99.90;;;;;;5052866;28;20169;-68
2023/05/02 06:41:05;;;;;;;39.03;25.43;;;12.50;99.90;;;;;;5053928;28;20169;-69
2023/05/02 06:43:31;;;;;;;35.07;24.30;;;12.60;99.90;;;;;;5053981;28;20166;-67
2023/05/02 06:45:57;;;;;;;40.20;23.90;;;12.70;99.90;;;;;;5052954;28;20530;-68
2023/05/02 06:48:23;;;;;;;36.87;25.33;;;12.80;99.90;;;;;;5053799;28;20176;-68
2023/05/02 06:50:51;;;;;;;34.03;24.80;;;12.80;99.90;;;;;;5053348;28;20196;-69
2023/05/02 06:53:17;;;;;;;35.47;24.40;;;12.90;99.90;;;;;;5053873;28;20269;-69
2023/05/02 06:55:43;;;;;;;39.33;25.00;;;12.90;99.90;;;;;;5053164;28;20170;-68
2023/05/02 06:58:09;;;;;;;35.10;25.17;;;13.10;99.90;;;;;;5052452;28;20286;-68
2023/05/02 07:00:35;;;;;;;37.50;26.80;;;13.40;98.70;;;;;;5053632;28;20174;-68
2023/05/02 07:03:00;;;;;;;36.50;26.10;;;13.60;87.40;;;;;;5052534;28;20188;-68
2023/05/02 07:05:26;;;;;;;38.70;26.57;;;13.90;65.30;;;;;;5053402;28;20695;-67
2023/05/02 07:07:52;;;;;;;39.10;27.03;;;14.10;49.50;;;;;;5053119;28;20263;-67
2023/05/02 07:10:17;;;;;;;36.13;25.40;;;14.20;34.50;;;;;;5053146;28;20176;-68
2023/05/02 07:12:43;;;;;;;33.60;25.97;;;14.00;29.10;;;;;;5053248;28;20171;-69
2023/05/02 07:15:09;;;;;;;35.50;26.97;;;13.90;40.70;;;;;;5053103;28;20176;-69
2023/05/02 07:17:34;;;;;;;35.17;26.20;;;14.30;35.70;;;;;;5052270;28;20237;-69
2023/05/02 07:20:00;;;;;;;31.30;24.03;;;14.50;19.90;;;;;;5053209;28;20223;-68
2023/05/02 07:22:26;;;;;;;36.33;25.43;;;14.70;13.20;;;;;;5052880;28;20181;-68
2023/05/02 07:24:59;;;;;;;30.97;23.90;;;14.60;8.20;;;;;;5053134;28;20161;-68
2023/05/02 07:27:25;;;;;;;30.17;23.93;;;14.30;9.70;;;;;;5053173;28;20246;-67
2023/05/02 07:29:51;;;;;;;30.53;23.90;;;14.60;19.30;;;;;;5053092;28;20633;-68
2023/05/02 07:32:16;;;;;;;33.03;23.30;;;15.30;1.00;;;;;;5052255;28;20180;-67
2023/05/02 07:34:42;;;;;;;26.23;20.30;;;15.80;1.00;;;;;;5053130;28;20227;-67
2023/05/02 07:37:08;;;;;;;30.47;22.33;;;15.10;1.00;;;;;;5053102;28;20344;-68
2023/05/02 07:39:34;;;;;;;27.90;21.30;;;15.20;1.00;;;;;;5051874;28;20207;-68
2023/05/02 07:42:00;;;;;;;32.47;20.97;;;15.80;1.00;;;;;;5053056;28;20192;-67
2023/05/02 07:44:25;;;;;;;25.13;19.00;;;16.60;1.00;;;;;;5052735;28;20173;-68
2023/05/02 07:46:51;;;;;;;23.10;19.03;;;17.20;1.00;;;;;;5052648;28;20181;-68
2023/05/02 07:49:18;;;;;;;24.30;19.67;;;17.40;1.00;;;;;;5053048;28;20292;-70
2023/05/02 07:51:44;;;;;;;19.98;17.88;;;17.30;1.00;;;;;;5051837;28;20589;-70
2023/05/02 07:54:20;;;;;;;22.20;18.90;;;16.10;1.00;;;;;;5052949;28;20192;-68
2023/05/02 07:56:46;;;;;;;18.73;16.73;;;15.60;1.00;;;;;;5051883;28;20232;-69
2023/05/02 07:59:12;;;;;;;17.03;14.37;;;16.10;1.00;;;;;;5052800;28;20200;-67
2023/05/02 08:01:40;;;;;;;16.77;14.82;;;17.50;1.00;;;;;;5052187;28;20177;-69
2023/05/02 08:04:06;;;;;;;18.27;15.25;;;18.40;1.00;;;;;;5034437;28;20180;-70
2023/05/02 08:06:32;;;;;;;17.77;15.02;;;19.70;99.90;;;;;;5052661;28;20169;-69
2023/05/02 08:08:57;;;;;;;17.08;15.25;;;21.80;99.90;;;;;;5052418;28;20169;-70
2023/05/02 08:11:26;;;;;;;11.18;10.07;;;23.50;26.60;;;;;;5052170;28;20170;-70
2023/05/02 08:13:51;;;;;;;9.57;8.68;;;24.10;1.00;;;;;;5050930;28;20185;-70
2023/05/02 08:16:18;;;;;;;12.10;8.80;;;23.50;1.00;;;;;;5052203;28;20533;-70
2023/05/02 08:18:44;;;;;;;11.25;8.75;;;21.30;99.90;;;;;;5051582;28;20287;-70
2023/05/02 08:21:10;;;;;;;9.02;8.18;;;20.50;90.70;;;;;;5051965;28;20165;-70
2023/05/02 08:23:36;;;;;;;10.18;8.70;;;20.40;1.00;;;;;;5052438;28;20203;-69
2023/05/02 08:26:02;;;;;;;10.02;7.88;;;21.10;1.00;;;;;;5052302;28;20263;-69
2023/05/02 08:28:29;;;;;;;10.55;7.60;;;19.80;1.00;;;;;;5052052;28;20162;-68
2023/05/02 08:30:55;;;;;;;10.60;7.75;;;18.90;1.00;;;;;;5051914;28;20176;-69
2023/05/02 08:33:20;;;;;;;10.85;7.45;;;19.90;1.00;;;;;;5052232;28;20173;-69
2023/05/02 08:35:46;;;;;;;8.15;7.35;;;20.10;99.90;;;;;;5034393;28;20593;-70
2023/05/02 08:38:12;;;;;;;7.13;5.97;;;21.50;1.00;;;;;;5051943;28;20711;-70
2023/05/02 08:40:38;;;;;;;9.77;6.68;;;22.20;99.90;;;;;;5051731;28;20161;-70
2023/05/02 08:43:04;;;;;;;8.73;6.63;;;22.50;1.00;;;;;;5051935;28;20219;-70
2023/05/02 08:45:51;;;;;;;8.00;4.30;;;23.40;1.00;;;;;;5051644;28;20196;-71
2023/05/02 08:48:18;;;;;;;6.03;4.68;;;24.30;1.00;;;;;;5051574;28;20200;-69
2023/05/02 08:50:46;;;;;;;6.03;4.38;;;25.50;99.90;;;;;;5052055;28;20177;-69
2023/05/02 08:53:13;;;;;;;5.63;3.90;;;24.40;99.90;;;;;;5050932;28;20181;-71
2023/05/02 08:55:40;;;;;;;4.32;3.92;;;22.90;1.00;;;;;;5051986;28;20166;-70
2023/05/02 08:58:07;;;;;;;5.78;3.92;;;21.30;99.90;;;;;;5051944;28;20207;-71
2023/05/02 09:00:40;;;;;;;4.60;3.85;;;21.20;99.90;;;;;;5051277;28;20172;-70
2023/05/02 09:03:10;;;;;;;4.53;4.13;;;21.20;99.90;;;;;;5056021;28;20231;-70
2023/05/02 09:05:40;;;;;;;4.55;4.03;;;20.20;93.60;;;;;;5054910;28;20173;-69
2023/05/02 09:08:06;;;;;;;4.35;3.95;;;19.80;99.90;;;;;;5055851;28;20736;-68
2023/05/02 09:10:35;;;;;;;5.45;4.75;;;19.80;1.00;;;;;;5055468;28;20239;-71
2023/05/02 09:13:32;;;;;;;7.03;5.25;;;19.40;1.00;;;;;;5055303;28;20173;-69
2023/05/02 09:16:01;;;;;;;9.27;5.88;;;19.50;1.00;;;;;;5055679;28;20173;-70
2023/05/02 09:18:35;;;;;;;10.35;6.22;;;20.20;99.90;;;;;;5054921;28;20318;-69
2023/05/02 09:21:24;;;;;;;6.75;6.03;;;21.40;99.90;;;;;;5055383;28;20248;-70
2023/05/02 09:24:00;;;;;;;8.98;6.60;;;21.60;1.00;;;;;;5054796;28;20612;-69
2023/05/02 09:26:31;;;;;;;7.15;5.28;;;22.40;1.00;;;;;;5055547;28;20310;-69
2023/05/02 09:28:57;;;;;;;6.72;5.25;;;22.40;1.00;;;;;;5055203;28;20181;-69
2023/05/02 09:31:36;;;;;;;6.43;5.70;;;20.70;1.00;;;;;;5055404;28;20201;-70
2023/05/02 09:34:16;;;;;;;8.65;5.68;;;21.10;99.90;;;;;;5055038;28;20169;-71
2023/05/02 09:36:52;;;;;;;8.65;5.35;;;22.50;1.00;;;;;;5055352;28;20209;-72
2023/05/02 09:39:30;;;;;;;5.45;4.75;;;23.70;1.00;;;;;;5053626;28;20270;-71
2023/05/02 09:41:56;;;;;;;5.20;4.70;;;24.20;99.90;;;;;;5054652;28;20177;-71
2023/05/02 09:44:24;;;;;;;4.35;3.97;;;24.70;99.90;;;;;;5055186;28;20173;-71
2023/05/02 09:46:54;;;;;;;4.95;4.45;;;23.60;99.90;;;;;;5055358;28;20177;-70
2023/05/02 09:49:43;;;;;;;8.27;4.00;;;24.50;99.90;;;;;;5055334;28;20211;-71
2023/05/02 09:52:17;;;;;;;8.90;4.10;;;26.40;99.90;;;;;;5052982;28;20177;-71
2023/05/02 09:54:43;;;;;;;4.43;4.13;;;26.50;99.90;;;;;;5054773;28;20165;-71
2023/05/02 09:57:09;;;;;;;4.43;4.00;;;25.50;99.90;;;;;;5054424;28;20228;-71
2023/05/02 09:59:35;;;;;;;4.10;3.72;;;24.10;99.90;;;;;;5055243;28;20637;-71
2023/05/02 10:02:03;;;;;;;4.25;3.85;;;23.70;99.90;;;;;;5054082;28;20247;-70
2023/05/02 10:04:31;;;;;;;5.53;3.65;;;23.20;99.90;;;;;;5055167;28;20170;-70
2023/05/02 10:06:58;;;;;;;5.80;3.63;;;24.00;99.90;;;;;;5054765;28;20270;-70
2023/05/02 10:09:25;;;;;;;9.35;4.82;;;25.10;99.90;;;;;;5054755;28;20177;-71
2023/05/02 10:11:52;;;;;;;5.72;3.33;;;26.00;99.90;;;;;;5052410;28;20253;-71
2023/05/02 10:14:20;;;;;;;5.70;3.28;;;26.10;99.90;;;;;;5054709;28;20712;-70
2023/05/02 10:16:57;;;;;;;6.38;3.80;;;23.90;99.90;;;;;;5054860;28;20181;-70
2023/05/02 10:19:29;;;;;;;5.30;3.80;;;23.90;99.90;;;;;;5034046;28;20277;-71
2023/05/02 10:21:55;;;;;;;4.82;4.00;;;22.80;99.90;;;;;;5033314;28;20613;-70
2023/05/02 10:24:24;;;;;;;7.70;4.10;;;23.80;99.90;;;;;;5034932;28;20225;-71
2023/05/02 10:26:51;;;;;;;5.45;4.03;;;24.90;99.90;;;;;;5034393;28;20209;-71
2023/05/02 10:29:17;;;;;;;7.80;4.60;;;25.10;99.90;;;;;;5034565;28;20177;-71
2023/05/02 10:31:44;;;;;;;5.22;4.72;;;24.90;99.90;;;;;;5033295;28;20173;-70
2023/05/02 10:34:11;;;;;;;4.82;4.13;;;24.60;99.90;;;;;;5033747;28;20177;-69
2023/05/02 10:36:36;;;;;;;8.00;4.70;;;23.80;99.90;;;;;;5034716;28;20228;-69
2023/05/02 10:39:02;;;;;;;8.35;5.63;;;22.70;99.90;;;;;;5034470;28;20641;-69
2023/05/02 10:41:32;;;;;;;5.50;5.00;;;21.10;1.00;;;;;;5033831;28;20256;-71
2023/05/02 10:43:58;;;;;;;9.00;5.13;;;20.40;99.90;;;;;;5034788;28;20177;-70
2023/05/02 10:46:35;;;;;;;6.13;4.68;;;20.60;99.90;;;;;;5033870;28;20660;-69
2023/05/02 10:49:06;;;;;;;9.07;5.10;;;21.00;1.00;;;;;;5032513;28;20268;-70
2023/05/02 10:51:33;;;;;;;7.47;5.43;;;21.20;1.00;;;;;;5033993;28;20209;-68
2023/05/02 10:54:22;;;;;;;8.75;6.20;;;21.00;1.00;;;;;;5033189;28;20179;-68
2023/05/02 10:57:03;;;;;;;7.47;5.95;;;21.00;1.00;;;;;;5034711;28;20925;-69
2023/05/02 10:59:36;;;;;;;7.88;5.35;;;21.20;1.00;;;;;;5034087;28;20174;-69
2023/05/02 11:02:03;;;;;;;9.27;5.93;;;21.70;1.00;;;;;;5049286;28;20205;-69
2023/05/02 11:05:03;;;;;;;9.93;6.10;;;22.10;1.00;;;;;;5033806;28;20165;-69
2023/05/02 11:07:31;;;;;;;10.25;6.55;;;22.20;1.00;;;;;;5034026;28;20205;-69
2023/05/02 11:10:17;;;;;;;14.75;7.03;;;22.20;1.00;;;;;;5033250;28;20212;-70
2023/05/02 11:12:56;;;;;;;9.55;6.20;;;22.00;1.00;;;;;;5033898;28;20169;-68
2023/05/02 11:15:26;;;;;;;18.45;6.07;;;21.90;1.00;;;;;;5034037;28;20656;-68
2023/05/02 11:18:02;;;;;;;8.18;5.40;;;21.90;1.00;;;;;;5041227;28;20217;-70
2023/05/02 11:20:29;;;;;;;10.77;6.00;;;21.00;1.00;;;;;;5053950;28;20172;-70
2023/05/02 11:22:57;;;;;;;13.55;6.65;;;21.00;1.00;;;;;;5053106;28;20226;-70
2023/05/02 11:25:34;;;;;;;9.25;6.35;;;20.70;1.00;;;;;;5052818;28;20174;-69
2023/05/02 11:28:00;;;;;;;6.25;5.65;;;20.80;1.00;;;;;;5053821;28;20208;-68
2023/05/02 11:30:47;;;;;;;9.30;6.07;;;21.30;1.00;;;;;;5053659;28;20600;-70
2023/05/02 11:33:15;;;;;;;7.07;6.13;;;21.90;1.00;;;;;;5053368;28;20647;-69
2023/05/02 11:35:42;;;;;;;9.98;5.80;;;21.50;1.00;;;;;;5052949;28;20173;-68
2023/05/02 11:38:11;;;;;;;11.77;5.93;;;21.80;1.00;;;;;;5053003;28;20202;-69
2023/05/02 11:40:37;;;;;;;9.30;6.72;;;22.20;99.90;;;;;;5053361;28;20176;-69
2023/05/02 11:43:26;;;;;;;8.02;6.30;;;22.20;1.00;;;;;;5053085;28;20173;-68
2023/05/02 11:45:53;;;;;;;5.78;5.13;;;22.20;1.00;;;;;;5053008;28;20621;-69
2023/05/02 11:48:21;;;;;;;11.20;5.60;;;21.20;1.00;;;;;;5052658;28;20707;-69
2023/05/02 11:50:52;;;;;;;8.77;5.43;;;21.00;1.00;;;;;;5052655;28;20321;-69
2023/05/02 11:53:28;;;;;;;7.85;6.75;;;21.40;1.00;;;;;;5052640;28;20179;-70
2023/05/02 11:55:56;;;;;;;11.30;6.45;;;21.90;1.00;;;;;;5053078;28;20181;-69
2023/05/02 11:58:31;;;;;;;7.82;5.53;;;22.10;1.00;;;;;;5052430;28;20173;-70
2023/05/02 12:00:58;;;;;;;8.75;6.00;;;22.10;99.90;;;;;;5053169;28;20161;-68
2023/05/02 12:03:29;;;;;;;8.80;5.20;;;21.00;1.00;;;;;;5034886;28;20196;-69
2023/05/02 12:05:56;;;;;;;11.18;5.38;;;19.90;1.00;;;;;;5053084;28;20255;-69
2023/05/02 12:08:27;;;;;;;7.68;4.80;;;19.10;99.90;;;;;;5052717;28;20209;-69
2023/05/02 12:10:54;;;;;;;7.13;4.80;;;19.00;1.00;;;;;;5052403;28;20192;-69
2023/05/02 12:13:23;;;;;;;7.28;5.53;;;19.00;99.90;;;;;;5052671;28;20644;-69
2023/05/02 12:15:49;;;;;;;7.80;5.32;;;18.70;1.00;;;;;;5053086;28;20291;-68
2023/05/02 12:18:16;;;;;;;6.35;5.03;;;18.90;1.00;;;;;;5051184;28;20221;-69
2023/05/02 12:20:42;;;;;;;9.07;5.15;;;19.10;99.90;;;;;;5052082;28;20172;-68
2023/05/02 12:23:11;;;;;;;7.97;5.30;;;18.90;99.90;;;;;;5052158;28;20185;-68
2023/05/02 12:25:38;;;;;;;9.35;4.78;;;18.70;99.90;;;;;;5052921;28;20676;-69
2023/05/02 12:28:04;;;;;;;6.88;5.15;;;18.70;1.00;;;;;;5052683;28;20232;-69
2023/05/02 12:30:31;;;;;;;10.73;5.90;;;18.60;1.00;;;;;;5051371;28;20173;-69
2023/05/02 12:33:00;;;;;;;7.82;5.20;;;19.10;99.90;;;;;;5050118;28;20265;-69
2023/05/02 12:35:27;;;;;;;9.18;5.20;;;19.40;1.00;;;;;;5052171;28;20161;-69
2023/05/02 12:37:53;;;;;;;7.65;5.75;;;19.80;1.00;;;;;;5051767;28;20279;-69
2023/05/02 12:40:19;;;;;;;8.70;5.68;;;19.80;1.00;;;;;;5052542;28;20173;-68
2023/05/02 12:43:03;;;;;;;5.50;5.00;;;19.70;1.00;;;;;;5052491;28;20169;-68
2023/05/02 12:45:35;;;;;;;8.68;5.80;;;19.80;1.00;;;;;;5052205;28;20743;-69